<?xml version="1.0" encoding="UTF-8" standalone="no" ?>
<gpx xmlns="http://www.topografix.com/GPX/1/1" xmlns:xsi="http://www.w3.org/2001/XMLSchema-instance" xsi:schemaLocation="http://www.topografix.com/GPX/1/1 http://www.topografix.com/GPX/1/1/gpx.xsd" version="1.1" creator="VisuGPX - https://www.visugpx.com">
  <metadata>
    <name>Parcours VTT Aglo 2021</name>
  </metadata>
  <trk>
    <name><![CDATA[Vert ST André de Roquepertuis]]></name>
    <extensions>
      <line xmlns="http://www.topografix.com/GPX/gpx_style/0/2">
        <color>00fa00</color>
        <width>4</width>
      </line>
    </extensions>
    <trkseg>
      <trkpt lat="44.23911" lon="4.45786">
        <ele>116</ele>
        <time>2021-07-04T13:18:27Z</time>
      </trkpt>
      <trkpt lat="44.23943" lon="4.45809">
        <ele>114</ele>
        <time>2021-07-04T13:18:35Z</time>
      </trkpt>
      <trkpt lat="44.23984" lon="4.45831">
        <ele>111</ele>
        <time>2021-07-04T13:18:46Z</time>
      </trkpt>
      <trkpt lat="44.24005" lon="4.4585">
        <ele>109</ele>
        <time>2021-07-04T13:18:52Z</time>
      </trkpt>
      <trkpt lat="44.24002" lon="4.45904">
        <ele>106</ele>
        <time>2021-07-04T13:19:01Z</time>
      </trkpt>
      <trkpt lat="44.23998" lon="4.4593">
        <ele>106</ele>
        <time>2021-07-04T13:19:05Z</time>
      </trkpt>
      <trkpt lat="44.24018" lon="4.45978">
        <ele>106</ele>
        <time>2021-07-04T13:19:14Z</time>
      </trkpt>
      <trkpt lat="44.24018" lon="4.46003">
        <ele>106</ele>
        <time>2021-07-04T13:19:18Z</time>
      </trkpt>
      <trkpt lat="44.23986" lon="4.46065">
        <ele>110</ele>
        <time>2021-07-04T13:19:31Z</time>
      </trkpt>
      <trkpt lat="44.23962" lon="4.46118">
        <ele>112</ele>
        <time>2021-07-04T13:19:42Z</time>
      </trkpt>
      <trkpt lat="44.23911" lon="4.46188">
        <ele>114</ele>
        <time>2021-07-04T13:19:58Z</time>
      </trkpt>
      <trkpt lat="44.23984" lon="4.4627">
        <ele>117</ele>
        <time>2021-07-04T13:20:20Z</time>
      </trkpt>
      <trkpt lat="44.2398" lon="4.46295">
        <ele>118</ele>
        <time>2021-07-04T13:20:25Z</time>
      </trkpt>
      <trkpt lat="44.23995" lon="4.46358">
        <ele>122</ele>
        <time>2021-07-04T13:20:36Z</time>
      </trkpt>
      <trkpt lat="44.23981" lon="4.46476">
        <ele>127</ele>
        <time>2021-07-04T13:20:56Z</time>
      </trkpt>
      <trkpt lat="44.23978" lon="4.46558">
        <ele>131</ele>
        <time>2021-07-04T13:21:09Z</time>
      </trkpt>
      <trkpt lat="44.2397" lon="4.46581">
        <ele>132</ele>
        <time>2021-07-04T13:21:14Z</time>
      </trkpt>
      <trkpt lat="44.23986" lon="4.46633">
        <ele>134</ele>
        <time>2021-07-04T13:21:23Z</time>
      </trkpt>
      <trkpt lat="44.23978" lon="4.46724">
        <ele>136</ele>
        <time>2021-07-04T13:21:39Z</time>
      </trkpt>
      <trkpt lat="44.23937" lon="4.46994">
        <ele>131</ele>
        <time>2021-07-04T13:22:25Z</time>
      </trkpt>
      <trkpt lat="44.23935" lon="4.47015">
        <ele>131</ele>
        <time>2021-07-04T13:22:28Z</time>
      </trkpt>
      <trkpt lat="44.23925" lon="4.47047">
        <ele>131</ele>
        <time>2021-07-04T13:22:34Z</time>
      </trkpt>
      <trkpt lat="44.2393" lon="4.47102">
        <ele>132</ele>
        <time>2021-07-04T13:22:43Z</time>
      </trkpt>
      <trkpt lat="44.23925" lon="4.47159">
        <ele>133</ele>
        <time>2021-07-04T13:22:53Z</time>
      </trkpt>
      <trkpt lat="44.23929" lon="4.47251">
        <ele>138</ele>
        <time>2021-07-04T13:23:08Z</time>
      </trkpt>
      <trkpt lat="44.23968" lon="4.47293">
        <ele>141</ele>
        <time>2021-07-04T13:23:20Z</time>
      </trkpt>
      <trkpt lat="44.23973" lon="4.47349">
        <ele>142</ele>
        <time>2021-07-04T13:23:29Z</time>
      </trkpt>
      <trkpt lat="44.23993" lon="4.47419">
        <ele>145</ele>
        <time>2021-07-04T13:23:42Z</time>
      </trkpt>
      <trkpt lat="44.24" lon="4.47525">
        <ele>154</ele>
        <time>2021-07-04T13:24:00Z</time>
      </trkpt>
      <trkpt lat="44.23997" lon="4.47592">
        <ele>158</ele>
        <time>2021-07-04T13:24:11Z</time>
      </trkpt>
      <trkpt lat="44.23985" lon="4.47678">
        <ele>159</ele>
        <time>2021-07-04T13:24:26Z</time>
      </trkpt>
      <trkpt lat="44.23979" lon="4.47696">
        <ele>159</ele>
        <time>2021-07-04T13:24:29Z</time>
      </trkpt>
      <trkpt lat="44.23964" lon="4.47685">
        <ele>157</ele>
        <time>2021-07-04T13:24:33Z</time>
      </trkpt>
      <trkpt lat="44.23919" lon="4.47569">
        <ele>145</ele>
        <time>2021-07-04T13:24:55Z</time>
      </trkpt>
      <trkpt lat="44.23891" lon="4.47515">
        <ele>141</ele>
        <time>2021-07-04T13:25:06Z</time>
      </trkpt>
      <trkpt lat="44.23864" lon="4.47469">
        <ele>138</ele>
        <time>2021-07-04T13:25:16Z</time>
      </trkpt>
      <trkpt lat="44.2384" lon="4.4746">
        <ele>137</ele>
        <time>2021-07-04T13:25:22Z</time>
      </trkpt>
      <trkpt lat="44.23824" lon="4.47434">
        <ele>135</ele>
        <time>2021-07-04T13:25:28Z</time>
      </trkpt>
      <trkpt lat="44.23771" lon="4.47408">
        <ele>131</ele>
        <time>2021-07-04T13:25:41Z</time>
      </trkpt>
      <trkpt lat="44.23747" lon="4.47364">
        <ele>129</ele>
        <time>2021-07-04T13:25:50Z</time>
      </trkpt>
      <trkpt lat="44.23711" lon="4.47341">
        <ele>127</ele>
        <time>2021-07-04T13:25:59Z</time>
      </trkpt>
      <trkpt lat="44.23686" lon="4.47303">
        <ele>124</ele>
        <time>2021-07-04T13:26:08Z</time>
      </trkpt>
      <trkpt lat="44.23651" lon="4.47256">
        <ele>121</ele>
        <time>2021-07-04T13:26:19Z</time>
      </trkpt>
      <trkpt lat="44.23559" lon="4.47151">
        <ele>116</ele>
        <time>2021-07-04T13:26:47Z</time>
      </trkpt>
      <trkpt lat="44.23525" lon="4.47104">
        <ele>113</ele>
        <time>2021-07-04T13:26:58Z</time>
      </trkpt>
      <trkpt lat="44.23486" lon="4.47072">
        <ele>111</ele>
        <time>2021-07-04T13:27:09Z</time>
      </trkpt>
      <trkpt lat="44.23459" lon="4.47041">
        <ele>109</ele>
        <time>2021-07-04T13:27:17Z</time>
      </trkpt>
      <trkpt lat="44.23452" lon="4.46935">
        <ele>107</ele>
        <time>2021-07-04T13:27:35Z</time>
      </trkpt>
      <trkpt lat="44.23416" lon="4.46939">
        <ele>106</ele>
        <time>2021-07-04T13:27:43Z</time>
      </trkpt>
      <trkpt lat="44.23395" lon="4.46925">
        <ele>106</ele>
        <time>2021-07-04T13:27:49Z</time>
      </trkpt>
      <trkpt lat="44.23379" lon="4.46891">
        <ele>105</ele>
        <time>2021-07-04T13:27:55Z</time>
      </trkpt>
      <trkpt lat="44.23339" lon="4.46872">
        <ele>103</ele>
        <time>2021-07-04T13:28:05Z</time>
      </trkpt>
      <trkpt lat="44.233" lon="4.46877">
        <ele>101</ele>
        <time>2021-07-04T13:28:14Z</time>
      </trkpt>
      <trkpt lat="44.23252" lon="4.46839">
        <ele>98</ele>
        <time>2021-07-04T13:28:27Z</time>
      </trkpt>
      <trkpt lat="44.23209" lon="4.46784">
        <ele>96</ele>
        <time>2021-07-04T13:28:41Z</time>
      </trkpt>
      <trkpt lat="44.23171" lon="4.46737">
        <ele>95</ele>
        <time>2021-07-04T13:28:53Z</time>
      </trkpt>
      <trkpt lat="44.23142" lon="4.46707">
        <ele>94</ele>
        <time>2021-07-04T13:29:01Z</time>
      </trkpt>
      <trkpt lat="44.23109" lon="4.46677">
        <ele>93</ele>
        <time>2021-07-04T13:29:10Z</time>
      </trkpt>
      <trkpt lat="44.23096" lon="4.46658">
        <ele>92</ele>
        <time>2021-07-04T13:29:15Z</time>
      </trkpt>
      <trkpt lat="44.23139" lon="4.46614">
        <ele>93</ele>
        <time>2021-07-04T13:29:27Z</time>
      </trkpt>
      <trkpt lat="44.23175" lon="4.46527">
        <ele>98</ele>
        <time>2021-07-04T13:29:44Z</time>
      </trkpt>
      <trkpt lat="44.23191" lon="4.46481">
        <ele>100</ele>
        <time>2021-07-04T13:29:53Z</time>
      </trkpt>
      <trkpt lat="44.23218" lon="4.46422">
        <ele>101</ele>
        <time>2021-07-04T13:30:04Z</time>
      </trkpt>
      <trkpt lat="44.23301" lon="4.46353">
        <ele>104</ele>
        <time>2021-07-04T13:30:27Z</time>
      </trkpt>
      <trkpt lat="44.23277" lon="4.46253">
        <ele>112</ele>
        <time>2021-07-04T13:30:45Z</time>
      </trkpt>
      <trkpt lat="44.23246" lon="4.46098">
        <ele>126</ele>
        <time>2021-07-04T13:31:11Z</time>
      </trkpt>
      <trkpt lat="44.23227" lon="4.46081">
        <ele>130</ele>
        <time>2021-07-04T13:31:17Z</time>
      </trkpt>
      <trkpt lat="44.23233" lon="4.46047">
        <ele>132</ele>
        <time>2021-07-04T13:31:23Z</time>
      </trkpt>
      <trkpt lat="44.23225" lon="4.45997">
        <ele>136</ele>
        <time>2021-07-04T13:31:31Z</time>
      </trkpt>
      <trkpt lat="44.23282" lon="4.45946">
        <ele>137</ele>
        <time>2021-07-04T13:31:47Z</time>
      </trkpt>
      <trkpt lat="44.23295" lon="4.45922">
        <ele>138</ele>
        <time>2021-07-04T13:31:52Z</time>
      </trkpt>
      <trkpt lat="44.23342" lon="4.45891">
        <ele>138</ele>
        <time>2021-07-04T13:32:04Z</time>
      </trkpt>
      <trkpt lat="44.23343" lon="4.45859">
        <ele>139</ele>
        <time>2021-07-04T13:32:10Z</time>
      </trkpt>
      <trkpt lat="44.23365" lon="4.45815">
        <ele>138</ele>
        <time>2021-07-04T13:32:19Z</time>
      </trkpt>
      <trkpt lat="44.23382" lon="4.45772">
        <ele>135</ele>
        <time>2021-07-04T13:32:27Z</time>
      </trkpt>
      <trkpt lat="44.2338" lon="4.45708">
        <ele>133</ele>
        <time>2021-07-04T13:32:37Z</time>
      </trkpt>
      <trkpt lat="44.23389" lon="4.4565">
        <ele>133</ele>
        <time>2021-07-04T13:32:47Z</time>
      </trkpt>
      <trkpt lat="44.23431" lon="4.45606">
        <ele>139</ele>
        <time>2021-07-04T13:33:00Z</time>
      </trkpt>
      <trkpt lat="44.23474" lon="4.45531">
        <ele>136</ele>
        <time>2021-07-04T13:33:16Z</time>
      </trkpt>
      <trkpt lat="44.23508" lon="4.45482">
        <ele>137</ele>
        <time>2021-07-04T13:33:27Z</time>
      </trkpt>
      <trkpt lat="44.2353" lon="4.45467">
        <ele>137</ele>
        <time>2021-07-04T13:33:33Z</time>
      </trkpt>
      <trkpt lat="44.23551" lon="4.45446">
        <ele>138</ele>
        <time>2021-07-04T13:33:39Z</time>
      </trkpt>
      <trkpt lat="44.23554" lon="4.45438">
        <ele>138</ele>
        <time>2021-07-04T13:33:40Z</time>
      </trkpt>
      <trkpt lat="44.23571" lon="4.45451">
        <ele>141</ele>
        <time>2021-07-04T13:33:45Z</time>
      </trkpt>
      <trkpt lat="44.23593" lon="4.45464">
        <ele>142</ele>
        <time>2021-07-04T13:33:51Z</time>
      </trkpt>
      <trkpt lat="44.23626" lon="4.45501">
        <ele>139</ele>
        <time>2021-07-04T13:34:00Z</time>
      </trkpt>
      <trkpt lat="44.23648" lon="4.45531">
        <ele>137</ele>
        <time>2021-07-04T13:34:08Z</time>
      </trkpt>
      <trkpt lat="44.23669" lon="4.45561">
        <ele>135</ele>
        <time>2021-07-04T13:34:15Z</time>
      </trkpt>
      <trkpt lat="44.23686" lon="4.45575">
        <ele>134</ele>
        <time>2021-07-04T13:34:19Z</time>
      </trkpt>
      <trkpt lat="44.23697" lon="4.45577">
        <ele>133</ele>
        <time>2021-07-04T13:34:22Z</time>
      </trkpt>
      <trkpt lat="44.23714" lon="4.45567">
        <ele>133</ele>
        <time>2021-07-04T13:34:26Z</time>
      </trkpt>
      <trkpt lat="44.23738" lon="4.45547">
        <ele>133</ele>
        <time>2021-07-04T13:34:33Z</time>
      </trkpt>
      <trkpt lat="44.23756" lon="4.45552">
        <ele>132</ele>
        <time>2021-07-04T13:34:37Z</time>
      </trkpt>
      <trkpt lat="44.2377" lon="4.45557">
        <ele>132</ele>
        <time>2021-07-04T13:34:40Z</time>
      </trkpt>
      <trkpt lat="44.23789" lon="4.45566">
        <ele>131</ele>
        <time>2021-07-04T13:34:45Z</time>
      </trkpt>
      <trkpt lat="44.23815" lon="4.45577">
        <ele>130</ele>
        <time>2021-07-04T13:34:51Z</time>
      </trkpt>
      <trkpt lat="44.23839" lon="4.45585">
        <ele>129</ele>
        <time>2021-07-04T13:34:57Z</time>
      </trkpt>
      <trkpt lat="44.23861" lon="4.45599">
        <ele>126</ele>
        <time>2021-07-04T13:35:03Z</time>
      </trkpt>
      <trkpt lat="44.2388" lon="4.45605">
        <ele>125</ele>
        <time>2021-07-04T13:35:07Z</time>
      </trkpt>
      <trkpt lat="44.23897" lon="4.45611">
        <ele>123</ele>
        <time>2021-07-04T13:35:11Z</time>
      </trkpt>
      <trkpt lat="44.23912" lon="4.45611">
        <ele>122</ele>
        <time>2021-07-04T13:35:15Z</time>
      </trkpt>
      <trkpt lat="44.23926" lon="4.45608">
        <ele>122</ele>
        <time>2021-07-04T13:35:18Z</time>
      </trkpt>
      <trkpt lat="44.23935" lon="4.45607">
        <ele>122</ele>
        <time>2021-07-04T13:35:20Z</time>
      </trkpt>
      <trkpt lat="44.23944" lon="4.45605">
        <ele>123</ele>
        <time>2021-07-04T13:35:22Z</time>
      </trkpt>
      <trkpt lat="44.23951" lon="4.45604">
        <ele>123</ele>
        <time>2021-07-04T13:35:24Z</time>
      </trkpt>
      <trkpt lat="44.23961" lon="4.45609">
        <ele>123</ele>
        <time>2021-07-04T13:35:27Z</time>
      </trkpt>
      <trkpt lat="44.2397" lon="4.45622">
        <ele>122</ele>
        <time>2021-07-04T13:35:30Z</time>
      </trkpt>
      <trkpt lat="44.23983" lon="4.45636">
        <ele>122</ele>
        <time>2021-07-04T13:35:33Z</time>
      </trkpt>
      <trkpt lat="44.23976" lon="4.45657">
        <ele>121</ele>
        <time>2021-07-04T13:35:37Z</time>
      </trkpt>
      <trkpt lat="44.2397" lon="4.45684">
        <ele>119</ele>
        <time>2021-07-04T13:35:42Z</time>
      </trkpt>
      <trkpt lat="44.23963" lon="4.4573">
        <ele>118</ele>
        <time>2021-07-04T13:35:50Z</time>
      </trkpt>
      <trkpt lat="44.23931" lon="4.45755">
        <ele>117</ele>
        <time>2021-07-04T13:35:58Z</time>
      </trkpt>
      <trkpt lat="44.23911" lon="4.45778">
        <ele>116</ele>
        <time>2021-07-04T13:36:04Z</time>
      </trkpt>
    </trkseg>
  </trk>
</gpx>